sensor_id;sensor_type;location;lat;lon;timestamp;pressure;altitude;pressure_sealevel;temperature;humidity
34482;BME280;20720;48.886;9.388;2023-04-01T00:00:26;97000.91;;;11.03;100.00
34482;BME280;20720;48.886;9.388;2023-04-01T00:02:52;96996.41;;;11.03;100.00
34482;BME280;20720;48.886;9.388;2023-04-01T00:05:17;97002.75;;;10.91;100.00
34482;BME280;20720;48.886;9.388;2023-04-01T00:07:42;96999.69;;;11.22;100.00
34482;BME280;20720;48.886;9.388;2023-04-01T00:10:11;97002.97;;;11.01;100.00
34482;BME280;20720;48.886;9.388;2023-04-01T00:12:37;96993.31;;;11.34;100.00
34482;BME280;20720;48.886;9.388;2023-04-01T00:15:04;96991.44;;;11.47;100.00
34482;BME280;20720;48.886;9.388;2023-04-01T00:17:29;96999.22;;;10.85;100.00
34482;BME280;20720;48.886;9.388;2023-04-01T00:19:55;96999.13;;;10.80;100.00
34482;BME280;20720;48.886;9.388;2023-04-01T00:22:21;96999.00;;;11.15;100.00
34482;BME280;20720;48.886;9.388;2023-04-01T00:24:47;96999.19;;;10.97;100.00
34482;BME280;20720;48.886;9.388;2023-04-01T00:27:12;96996.63;;;11.30;100.00
34482;BME280;20720;48.886;9.388;2023-04-01T00:29:38;96995.34;;;10.88;100.00
34482;BME280;20720;48.886;9.388;2023-04-01T00:32:03;97006.94;;;11.03;100.00
34482;BME280;20720;48.886;9.388;2023-04-01T00:34:28;97009.84;;;10.79;100.00
34482;BME280;20720;48.886;9.388;2023-04-01T00:36:54;96997.16;;;11.44;100.00
34482;BME280;20720;48.886;9.388;2023-04-01T00:39:22;97004.50;;;10.74;100.00
34482;BME280;20720;48.886;9.388;2023-04-01T00:41:47;97003.69;;;10.85;100.00
34482;BME280;20720;48.886;9.388;2023-04-01T00:44:22;96994.53;;;10.87;100.00
34482;BME280;20720;48.886;9.388;2023-04-01T00:46:48;96988.47;;;11.15;100.00
34482;BME280;20720;48.886;9.388;2023-04-01T00:49:17;96995.75;;;10.96;100.00
34482;BME280;20720;48.886;9.388;2023-04-01T00:51:45;96995.38;;;10.76;100.00
34482;BME280;20720;48.886;9.388;2023-04-01T00:54:11;96998.53;;;10.90;100.00
34482;BME280;20720;48.886;9.388;2023-04-01T00:56:43;96995.44;;;10.93;100.00
34482;BME280;20720;48.886;9.388;2023-04-01T00:59:13;96998.91;;;10.82;100.00
34482;BME280;20720;48.886;9.388;2023-04-01T01:01:39;97005.47;;;10.96;100.00
34482;BME280;20720;48.886;9.388;2023-04-01T01:04:05;96997.38;;;10.97;100.00
34482;BME280;20720;48.886;9.388;2023-04-01T01:06:51;96996.47;;;11.20;100.00
34482;BME280;20720;48.886;9.388;2023-04-01T01:14:51;97005.09;;;11.04;100.00
34482;BME280;20720;48.886;9.388;2023-04-01T01:17:45;97003.03;;;11.06;100.00
34482;BME280;20720;48.886;9.388;2023-04-01T01:23:28;96998.84;;;11.05;100.00
34482;BME280;20720;48.886;9.388;2023-04-01T01:26:40;96997.25;;;11.20;100.00
34482;BME280;20720;48.886;9.388;2023-04-01T01:29:33;97004.16;;;11.38;100.00
34482;BME280;20720;48.886;9.388;2023-04-01T01:37:44;97003.50;;;11.31;100.00
34482;BME280;20720;48.886;9.388;2023-04-01T01:40:12;97007.09;;;10.97;100.00
34482;BME280;20720;48.886;9.388;2023-04-01T01:42:46;97002.66;;;11.14;100.00
34482;BME280;20720;48.886;9.388;2023-04-01T01:45:14;97002.19;;;11.17;100.00
34482;BME280;20720;48.886;9.388;2023-04-01T01:47:43;96998.50;;;11.01;100.00
34482;BME280;20720;48.886;9.388;2023-04-01T01:50:10;97003.66;;;11.24;100.00
34482;BME280;20720;48.886;9.388;2023-04-01T01:52:36;96991.06;;;11.26;100.00
34482;BME280;20720;48.886;9.388;2023-04-01T01:55:03;96997.88;;;11.11;100.00
34482;BME280;20720;48.886;9.388;2023-04-01T01:57:31;96999.28;;;11.02;100.00
34482;BME280;20720;48.886;9.388;2023-04-01T02:00:03;96995.16;;;11.06;100.00
34482;BME280;20720;48.886;9.388;2023-04-01T02:02:31;96998.72;;;11.28;100.00
34482;BME280;20720;48.886;9.388;2023-04-01T02:04:57;96994.22;;;11.12;100.00
34482;BME280;20720;48.886;9.388;2023-04-01T02:07:29;96987.06;;;10.96;100.00
34482;BME280;20720;48.886;9.388;2023-04-01T02:09:55;96983.13;;;10.82;100.00
34482;BME280;20720;48.886;9.388;2023-04-01T02:12:22;96985.56;;;10.72;100.00
34482;BME280;20720;48.886;9.388;2023-04-01T02:14:54;96980.63;;;10.75;100.00
34482;BME280;20720;48.886;9.388;2023-04-01T02:17:24;96980.66;;;10.64;100.00
34482;BME280;20720;48.886;9.388;2023-04-01T02:20:28;96990.81;;;10.72;100.00
34482;BME280;20720;48.886;9.388;2023-04-01T02:22:56;96992.59;;;10.83;100.00
34482;BME280;20720;48.886;9.388;2023-04-01T02:25:27;96994.88;;;11.19;100.00
34482;BME280;20720;48.886;9.388;2023-04-01T02:27:55;96991.09;;;10.87;100.00
34482;BME280;20720;48.886;9.388;2023-04-01T02:30:22;97000.75;;;10.70;100.00
34482;BME280;20720;48.886;9.388;2023-04-01T02:32:48;97002.63;;;10.58;100.00
34482;BME280;20720;48.886;9.388;2023-04-01T02:35:15;96994.44;;;10.82;100.00
34482;BME280;20720;48.886;9.388;2023-04-01T02:37:43;96989.31;;;10.76;100.00
34482;BME280;20720;48.886;9.388;2023-04-01T02:40:12;96995.34;;;10.88;100.00
34482;BME280;20720;48.886;9.388;2023-04-01T02:42:37;96988.47;;;10.87;100.00
34482;BME280;20720;48.886;9.388;2023-04-01T02:45:03;96983.19;;;10.59;100.00
34482;BME280;20720;48.886;9.388;2023-04-01T02:47:29;96983.22;;;10.87;100.00
34482;BME280;20720;48.886;9.388;2023-04-01T02:49:54;96980.47;;;10.54;100.00
34482;BME280;20720;48.886;9.388;2023-04-01T02:52:28;96991.59;;;10.84;100.00
34482;BME280;20720;48.886;9.388;2023-04-01T02:54:54;96991.16;;;10.64;100.00
34482;BME280;20720;48.886;9.388;2023-04-01T02:57:19;96990.94;;;10.77;100.00
34482;BME280;20720;48.886;9.388;2023-04-01T02:59:45;96995.81;;;10.73;100.00
34482;BME280;20720;48.886;9.388;2023-04-01T03:02:10;97001.66;;;11.03;100.00
34482;BME280;20720;48.886;9.388;2023-04-01T03:04:35;96993.88;;;10.80;100.00
34482;BME280;20720;48.886;9.388;2023-04-01T03:07:01;96996.50;;;10.80;100.00
34482;BME280;20720;48.886;9.388;2023-04-01T03:09:26;97006.00;;;10.70;100.00
34482;BME280;20720;48.886;9.388;2023-04-01T03:11:53;97003.75;;;10.62;100.00
34482;BME280;20720;48.886;9.388;2023-04-01T03:14:18;96999.81;;;10.76;100.00
34482;BME280;20720;48.886;9.388;2023-04-01T03:16:44;97001.88;;;10.74;100.00
34482;BME280;20720;48.886;9.388;2023-04-01T03:19:09;96999.34;;;10.79;100.00
34482;BME280;20720;48.886;9.388;2023-04-01T03:21:35;97010.59;;;10.63;100.00
34482;BME280;20720;48.886;9.388;2023-04-01T03:24:00;96999.19;;;10.97;100.00
34482;BME280;20720;48.886;9.388;2023-04-01T03:26:25;97009.47;;;10.59;100.00
34482;BME280;20720;48.886;9.388;2023-04-01T03:28:52;97014.28;;;10.38;100.00
34482;BME280;20720;48.886;9.388;2023-04-01T03:31:18;97017.34;;;10.35;100.00
34482;BME280;20720;48.886;9.388;2023-04-01T03:33:43;97018.16;;;10.24;100.00
34482;BME280;20720;48.886;9.388;2023-04-01T03:36:08;97010.19;;;10.31;100.00
34482;BME280;20720;48.886;9.388;2023-04-01T03:38:34;97014.88;;;10.17;100.00
34482;BME280;20720;48.886;9.388;2023-04-01T03:41:00;97007.66;;;10.24;100.00
34482;BME280;20720;48.886;9.388;2023-04-01T03:43:25;97013.25;;;10.39;100.00
34482;BME280;20720;48.886;9.388;2023-04-01T03:45:51;97010.19;;;10.43;100.00
34482;BME280;20720;48.886;9.388;2023-04-01T03:48:17;97016.44;;;10.53;100.00
34482;BME280;20720;48.886;9.388;2023-04-01T03:50:45;97007.66;;;10.24;100.00
34482;BME280;20720;48.886;9.388;2023-04-01T03:53:10;97010.84;;;10.50;100.00
34482;BME280;20720;48.886;9.388;2023-04-01T03:55:36;97014.16;;;10.45;100.00
34482;BME280;20720;48.886;9.388;2023-04-01T03:58:03;97012.56;;;10.56;100.00
34482;BME280;20720;48.886;9.388;2023-04-01T04:00:29;97009.03;;;10.27;100.00
34482;BME280;20720;48.886;9.388;2023-04-01T04:02:55;97013.78;;;10.65;100.00
34482;BME280;20720;48.886;9.388;2023-04-01T04:05:22;97005.72;;;10.31;100.00
34482;BME280;20720;48.886;9.388;2023-04-01T04:07:47;97005.69;;;10.55;100.00
34482;BME280;20720;48.886;9.388;2023-04-01T04:10:13;97000.50;;;10.20;100.00
34482;BME280;20720;48.886;9.388;2023-04-01T04:12:38;96999.31;;;10.51;100.00
34482;BME280;20720;48.886;9.388;2023-04-01T04:15:05;96999.75;;;10.59;100.00
34482;BME280;20720;48.886;9.388;2023-04-01T04:17:31;96992.94;;;10.35;100.00
34482;BME280;20720;48.886;9.388;2023-04-01T04:19:56;96999.34;;;10.27;100.00
34482;BME280;20720;48.886;9.388;2023-04-01T04:22:21;96997.63;;;10.45;100.00
34482;BME280;20720;48.886;9.388;2023-04-01T04:24:47;96992.47;;;10.50;100.00
34482;BME280;20720;48.886;9.388;2023-04-01T04:27:12;96995.19;;;10.55;100.00
34482;BME280;20720;48.886;9.388;2023-04-01T04:29:37;96994.31;;;10.37;100.00
34482;BME280;20720;48.886;9.388;2023-04-01T04:32:02;96997.81;;;10.55;100.00
34482;BME280;20720;48.886;9.388;2023-04-01T04:34:28;96993.03;;;10.91;100.00
34482;BME280;20720;48.886;9.388;2023-04-01T04:36:53;97001.41;;;10.37;100.00
34482;BME280;20720;48.886;9.388;2023-04-01T04:39:18;97001.59;;;10.35;100.00
34482;BME280;20720;48.886;9.388;2023-04-01T04:41:43;96997.25;;;10.53;100.00
34482;BME280;20720;48.886;9.388;2023-04-01T04:44:09;96995.44;;;10.53;100.00
34482;BME280;20720;48.886;9.388;2023-04-01T04:46:34;97008.44;;;10.99;100.00
34482;BME280;20720;48.886;9.388;2023-04-01T04:48:59;97004.47;;;10.34;100.00
34482;BME280;20720;48.886;9.388;2023-04-01T04:51:24;97012.19;;;10.64;100.00
34482;BME280;20720;48.886;9.388;2023-04-01T04:53:50;97001.94;;;10.04;100.00
34482;BME280;20720;48.886;9.388;2023-04-01T04:56:22;96996.59;;;10.46;100.00
34482;BME280;20720;48.886;9.388;2023-04-01T04:58:49;97004.81;;;10.26;100.00
34482;BME280;20720;48.886;9.388;2023-04-01T05:01:16;96993.16;;;10.33;100.00
34482;BME280;20720;48.886;9.388;2023-04-01T05:03:42;96999.03;;;10.12;100.00
34482;BME280;20720;48.886;9.388;2023-04-01T05:06:09;96998.22;;;10.12;100.00
34482;BME280;20720;48.886;9.388;2023-04-01T05:08:35;96996.72;;;10.27;100.00
34482;BME280;20720;48.886;9.388;2023-04-01T05:11:01;96998.22;;;10.35;100.00
34482;BME280;20720;48.886;9.388;2023-04-01T05:13:27;97006.66;;;10.25;100.00
34482;BME280;20720;48.886;9.388;2023-04-01T05:15:53;97002.16;;;10.61;100.00
34482;BME280;20720;48.886;9.388;2023-04-01T05:18:18;97000.94;;;10.28;100.00
34482;BME280;20720;48.886;9.388;2023-04-01T05:20:50;96994.78;;;10.34;100.00
34482;BME280;20720;48.886;9.388;2023-04-01T05:23:15;97003.56;;;10.17;100.00
34482;BME280;20720;48.886;9.388;2023-04-01T05:25:41;96999.56;;;10.37;100.00
34482;BME280;20720;48.886;9.388;2023-04-01T05:28:06;96993.31;;;10.15;100.00
34482;BME280;20720;48.886;9.388;2023-04-01T05:30:31;96995.22;;;10.31;100.00
34482;BME280;20720;48.886;9.388;2023-04-01T05:32:57;97001.66;;;10.64;100.00
34482;BME280;20720;48.886;9.388;2023-04-01T05:35:23;96996.59;;;10.46;100.00
34482;BME280;20720;48.886;9.388;2023-04-01T05:37:48;96993.16;;;10.85;100.00
34482;BME280;20720;48.886;9.388;2023-04-01T05:40:13;97000.84;;;10.23;100.00
34482;BME280;20720;48.886;9.388;2023-04-01T05:42:39;97000.69;;;10.41;100.00
34482;BME280;20720;48.886;9.388;2023-04-01T05:45:05;96996.00;;;10.43;100.00
34482;BME280;20720;48.886;9.388;2023-04-01T05:47:30;97005.13;;;10.53;100.00
34482;BME280;20720;48.886;9.388;2023-04-01T05:49:55;96998.56;;;10.78;100.00
34482;BME280;20720;48.886;9.388;2023-04-01T05:52:21;96988.53;;;10.64;100.00
34482;BME280;20720;48.886;9.388;2023-04-01T05:54:46;96977.78;;;10.77;100.00
34482;BME280;20720;48.886;9.388;2023-04-01T05:57:11;96977.38;;;10.96;100.00
34482;BME280;20720;48.886;9.388;2023-04-01T05:59:37;96977.09;;;10.70;100.00
34482;BME280;20720;48.886;9.388;2023-04-01T06:02:02;96987.78;;;10.91;100.00
34482;BME280;20720;48.886;9.388;2023-04-01T06:04:32;96979.03;;;10.86;100.00
34482;BME280;20720;48.886;9.388;2023-04-01T06:06:59;96982.06;;;10.94;100.00
34482;BME280;20720;48.886;9.388;2023-04-01T06:09:27;96983.22;;;10.87;100.00
34482;BME280;20720;48.886;9.388;2023-04-01T06:17:57;96990.72;;;11.06;100.00
34482;BME280;20720;48.886;9.388;2023-04-01T06:23:31;96972.72;;;11.60;100.00
34482;BME280;20720;48.886;9.388;2023-04-01T06:26:20;96968.66;;;11.52;100.00
34482;BME280;20720;48.886;9.388;2023-04-01T06:31:39;96982.81;;;11.51;100.00
34482;BME280;20720;48.886;9.388;2023-04-01T06:44:45;96983.59;;;11.80;100.00
34482;BME280;20720;48.886;9.388;2023-04-01T06:49:59;96982.09;;;11.39;100.00
34482;BME280;20720;48.886;9.388;2023-04-01T06:55:30;96980.13;;;11.46;100.00
34482;BME280;20720;48.886;9.388;2023-04-01T06:57:59;96981.53;;;11.37;100.00
34482;BME280;20720;48.886;9.388;2023-04-01T07:00:37;96980.56;;;11.43;100.00
34482;BME280;20720;48.886;9.388;2023-04-01T07:05:45;96976.25;;;11.65;100.00
34482;BME280;20720;48.886;9.388;2023-04-01T07:08:14;96973.13;;;11.68;100.00
34482;BME280;20720;48.886;9.388;2023-04-01T07:10:46;96973.13;;;11.85;100.00
34482;BME280;20720;48.886;9.388;2023-04-01T07:13:18;96981.91;;;11.90;100.00
34482;BME280;20720;48.886;9.388;2023-04-01T07:16:03;96982.53;;;11.97;100.00
34482;BME280;20720;48.886;9.388;2023-04-01T07:23:52;96981.50;;;11.65;100.00
34482;BME280;20720;48.886;9.388;2023-04-01T07:26:22;96990.69;;;11.96;100.00
34482;BME280;20720;48.886;9.388;2023-04-01T07:28:48;96992.88;;;11.54;100.00
34482;BME280;20720;48.886;9.388;2023-04-01T07:31:23;96991.25;;;11.98;100.00
34482;BME280;20720;48.886;9.388;2023-04-01T07:37:02;97002.06;;;11.68;100.00
34482;BME280;20720;48.886;9.388;2023-04-01T07:40:02;97006.59;;;11.56;100.00
34482;BME280;20720;48.886;9.388;2023-04-01T07:45:30;97003.22;;;11.44;100.00
34482;BME280;20720;48.886;9.388;2023-04-01T07:48:30;97003.22;;;11.44;100.00
34482;BME280;20720;48.886;9.388;2023-04-01T07:51:01;97011.81;;;11.84;100.00
34482;BME280;20720;48.886;9.388;2023-04-01T07:53:31;97004.69;;;11.68;100.00
34482;BME280;20720;48.886;9.388;2023-04-01T07:56:09;97001.03;;;12.02;100.00
34482;BME280;20720;48.886;9.388;2023-04-01T07:59:09;97000.72;;;11.99;100.00
34482;BME280;20720;48.886;9.388;2023-04-01T08:01:55;97005.69;;;11.95;100.00
34482;BME280;20720;48.886;9.388;2023-04-01T08:07:17;97001.34;;;11.56;100.00
34482;BME280;20720;48.886;9.388;2023-04-01T08:09:52;97008.00;;;11.92;100.00
34482;BME280;20720;48.886;9.388;2023-04-01T08:20:31;97005.78;;;12.39;100.00
34482;BME280;20720;48.886;9.388;2023-04-01T08:23:18;97007.09;;;12.03;100.00
34482;BME280;20720;48.886;9.388;2023-04-01T08:25:53;97010.84;;;11.74;100.00
34482;BME280;20720;48.886;9.388;2023-04-01T08:31:06;97008.78;;;11.76;100.00
34482;BME280;20720;48.886;9.388;2023-04-01T08:33:33;97010.59;;;11.75;100.00
34482;BME280;20720;48.886;9.388;2023-04-01T08:36:05;97013.00;;;11.93;100.00
34482;BME280;20720;48.886;9.388;2023-04-01T08:38:49;97016.81;;;12.02;100.00
34482;BME280;20720;48.886;9.388;2023-04-01T08:44:24;97015.00;;;11.86;100.00
34482;BME280;20720;48.886;9.388;2023-04-01T08:47:13;97014.28;;;11.74;100.00
34482;BME280;20720;48.886;9.388;2023-04-01T08:50:17;97027.28;;;11.97;100.00
34482;BME280;20720;48.886;9.388;2023-04-01T08:55:44;97020.19;;;11.81;100.00
34482;BME280;20720;48.886;9.388;2023-04-01T08:58:25;97007.88;;;10.97;100.00
34482;BME280;20720;48.886;9.388;2023-04-01T09:01:10;96996.50;;;11.36;100.00
34482;BME280;20720;48.886;9.388;2023-04-01T09:06:24;96990.09;;;11.16;100.00
34482;BME280;20720;48.886;9.388;2023-04-01T09:20:17;96993.63;;;11.21;100.00
34482;BME280;20720;48.886;9.388;2023-04-01T09:22:58;96989.97;;;11.11;100.00
34482;BME280;20720;48.886;9.388;2023-04-01T09:25:48;96987.84;;;11.08;100.00
34482;BME280;20720;48.886;9.388;2023-04-01T09:28:20;96993.56;;;11.05;100.00
34482;BME280;20720;48.886;9.388;2023-04-01T09:39:26;96996.69;;;11.47;100.00
34482;BME280;20720;48.886;9.388;2023-04-01T09:45:24;96990.53;;;11.69;100.00
34482;BME280;20720;48.886;9.388;2023-04-01T09:50:38;97005.09;;;11.32;100.00
34482;BME280;20720;48.886;9.388;2023-04-01T09:53:14;97009.25;;;11.73;100.00
34482;BME280;20720;48.886;9.388;2023-04-01T09:59:11;97007.09;;;11.70;100.00
34482;BME280;20720;48.886;9.388;2023-04-01T10:02:14;97008.34;;;12.34;100.00
34482;BME280;20720;48.886;9.388;2023-04-01T10:38:50;97029.47;;;11.56;100.00
34482;BME280;20720;48.886;9.388;2023-04-01T10:54:45;97053.09;;;11.39;100.00
34482;BME280;20720;48.886;9.388;2023-04-01T11:03:06;97032.44;;;11.76;100.00
34482;BME280;20720;48.886;9.388;2023-04-01T11:20:21;97025.78;;;11.57;100.00
34482;BME280;20720;48.886;9.388;2023-04-01T11:25:42;97039.72;;;11.85;100.00
34482;BME280;20720;48.886;9.388;2023-04-01T11:31:43;97039.88;;;11.95;100.00
34482;BME280;20720;48.886;9.388;2023-04-01T11:34:16;97036.91;;;12.25;100.00
34482;BME280;20720;48.886;9.388;2023-04-01T11:37:08;97042.78;;;11.94;100.00
34482;BME280;20720;48.886;9.388;2023-04-01T11:40:02;97047.28;;;11.98;100.00
34482;BME280;20720;48.886;9.388;2023-04-01T11:42:44;97041.38;;;12.24;100.00
34482;BME280;20720;48.886;9.388;2023-04-01T11:47:58;97045.09;;;11.90;100.00
34482;BME280;20720;48.886;9.388;2023-04-01T11:50:59;97047.47;;;12.08;100.00
34482;BME280;20720;48.886;9.388;2023-04-01T11:59:03;97046.00;;;12.72;100.00
34482;BME280;20720;48.886;9.388;2023-04-01T12:01:47;97051.25;;;12.51;100.00
34482;BME280;20720;48.886;9.388;2023-04-01T12:13:23;97071.91;;;12.97;100.00
34482;BME280;20720;48.886;9.388;2023-04-01T12:15:42;97058.63;;;12.49;100.00
34482;BME280;20720;48.886;9.388;2023-04-01T12:18:38;97069.94;;;12.32;100.00
34482;BME280;20720;48.886;9.388;2023-04-01T12:21:16;97080.25;;;12.34;100.00
34482;BME280;20720;48.886;9.388;2023-04-01T12:23:59;97072.69;;;12.38;100.00
34482;BME280;20720;48.886;9.388;2023-04-01T12:29:18;97074.59;;;12.09;100.00
34482;BME280;20720;48.886;9.388;2023-04-01T12:32:30;97079.69;;;12.49;100.00
34482;BME280;20720;48.886;9.388;2023-04-01T12:37:36;97081.69;;;12.80;100.00
34482;BME280;20720;48.886;9.388;2023-04-01T12:43:02;97077.38;;;12.74;100.00
34482;BME280;20720;48.886;9.388;2023-04-01T12:45:34;97083.94;;;12.16;100.00
34482;BME280;20720;48.886;9.388;2023-04-01T12:59:09;97083.84;;;12.28;100.00
34482;BME280;20720;48.886;9.388;2023-04-01T13:01:49;97077.66;;;12.56;100.00
34482;BME280;20720;48.886;9.388;2023-04-01T13:04:30;97087.94;;;12.74;100.00
34482;BME280;20720;48.886;9.388;2023-04-01T13:07:19;97092.44;;;12.57;100.00
34482;BME280;20720;48.886;9.388;2023-04-01T13:15:39;97111.28;;;12.49;100.00
34482;BME280;20720;48.886;9.388;2023-04-01T13:18:38;97100.88;;;12.59;100.00
34482;BME280;20720;48.886;9.388;2023-04-01T13:21:26;97110.78;;;12.02;100.00
34482;BME280;20720;48.886;9.388;2023-04-01T13:27:01;97112.72;;;12.23;100.00
34482;BME280;20720;48.886;9.388;2023-04-01T13:29:38;97116.25;;;11.67;100.00
34482;BME280;20720;48.886;9.388;2023-04-01T13:37:50;97104.31;;;11.65;100.00
34482;BME280;20720;48.886;9.388;2023-04-01T13:43:19;97094.81;;;11.35;100.00
34482;BME280;20720;48.886;9.388;2023-04-01T13:56:09;97108.00;;;11.64;100.00
34482;BME280;20720;48.886;9.388;2023-04-01T13:58:58;97112.59;;;11.57;100.00
34482;BME280;20720;48.886;9.388;2023-04-01T14:01:43;97119.84;;;11.78;100.00
34482;BME280;20720;48.886;9.388;2023-04-01T14:07:22;97127.59;;;11.56;100.00
34482;BME280;20720;48.886;9.388;2023-04-01T14:10:17;97127.09;;;11.59;100.00
34482;BME280;20720;48.886;9.388;2023-04-01T14:12:48;97125.97;;;11.55;100.00
34482;BME280;20720;48.886;9.388;2023-04-01T14:23:56;97120.50;;;11.45;100.00
34482;BME280;20720;48.886;9.388;2023-04-01T14:29:17;97133.84;;;11.27;100.00
34482;BME280;20720;48.886;9.388;2023-04-01T14:35:04;97137.69;;;11.36;100.00
34482;BME280;20720;48.886;9.388;2023-04-01T14:48:34;97147.28;;;11.42;100.00
34482;BME280;20720;48.886;9.388;2023-04-01T14:51:16;97141.63;;;11.73;100.00
34482;BME280;20720;48.886;9.388;2023-04-01T14:53:52;97143.56;;;11.66;100.00
34482;BME280;20720;48.886;9.388;2023-04-01T14:56:35;97147.41;;;11.75;100.00
34482;BME280;20720;48.886;9.388;2023-04-01T14:59:01;97138.56;;;11.53;100.00
34482;BME280;20720;48.886;9.388;2023-04-01T15:01:47;97147.41;;;11.75;100.00
34482;BME280;20720;48.886;9.388;2023-04-01T15:04:41;97146.88;;;12.01;100.00
34482;BME280;20720;48.886;9.388;2023-04-01T15:10:01;97140.50;;;12.30;100.00
34482;BME280;20720;48.886;9.388;2023-04-01T15:18:24;97150.50;;;11.44;100.00
34482;BME280;20720;48.886;9.388;2023-04-01T15:21:18;97150.97;;;11.81;100.00
34482;BME280;20720;48.886;9.388;2023-04-01T15:23:56;97154.69;;;11.85;100.00
34482;BME280;20720;48.886;9.388;2023-04-01T15:27:02;97149.25;;;12.03;100.00
34482;BME280;20720;48.886;9.388;2023-04-01T15:29:57;97162.66;;;11.73;100.00
34482;BME280;20720;48.886;9.388;2023-04-01T15:33:09;97151.34;;;12.17;100.00
34482;BME280;20720;48.886;9.388;2023-04-01T15:35:49;97169.28;;;11.64;100.00
34482;BME280;20720;48.886;9.388;2023-04-01T15:38:26;97164.44;;;12.12;100.00
34482;BME280;20720;48.886;9.388;2023-04-01T15:41:03;97168.38;;;11.98;100.00
34482;BME280;20720;48.886;9.388;2023-04-01T15:52:15;97173.22;;;12.18;100.00
34482;BME280;20720;48.886;9.388;2023-04-01T16:00:16;97191.66;;;11.90;100.00
34482;BME280;20720;48.886;9.388;2023-04-01T16:05:49;97192.19;;;11.64;100.00
34482;BME280;20720;48.886;9.388;2023-04-01T16:10:58;97183.72;;;12.01;100.00
34482;BME280;20720;48.886;9.388;2023-04-01T16:13:46;97199.97;;;11.98;100.00
34482;BME280;20720;48.886;9.388;2023-04-01T16:16:25;97194.59;;;12.21;100.00
34482;BME280;20720;48.886;9.388;2023-04-01T16:19:07;97203.47;;;12.04;100.00
34482;BME280;20720;48.886;9.388;2023-04-01T16:21:51;97195.38;;;12.05;100.00
34482;BME280;20720;48.886;9.388;2023-04-01T16:27:00;97207.13;;;12.14;100.00
34482;BME280;20720;48.886;9.388;2023-04-01T16:29:47;97213.03;;;12.21;100.00
34482;BME280;20720;48.886;9.388;2023-04-01T16:32:34;97208.88;;;12.25;100.00
34482;BME280;20720;48.886;9.388;2023-04-01T16:35:20;97209.56;;;12.04;100.00
34482;BME280;20720;48.886;9.388;2023-04-01T16:37:59;97218.88;;;12.40;100.00
34482;BME280;20720;48.886;9.388;2023-04-01T16:46:57;97224.78;;;12.30;100.00
34482;BME280;20720;48.886;9.388;2023-04-01T16:49:47;97235.31;;;12.02;100.00
34482;BME280;20720;48.886;9.388;2023-04-01T16:52:17;97233.41;;;12.26;100.00
34482;BME280;20720;48.886;9.388;2023-04-01T16:55:15;97243.97;;;12.14;100.00
34482;BME280;20720;48.886;9.388;2023-04-01T16:57:56;97242.56;;;11.95;100.00
34482;BME280;20720;48.886;9.388;2023-04-01T17:00:28;97246.88;;;11.62;100.00
34482;BME280;20720;48.886;9.388;2023-04-01T17:03:02;97235.19;;;12.37;100.00
34482;BME280;20720;48.886;9.388;2023-04-01T17:05:42;97242.88;;;11.99;100.00
34482;BME280;20720;48.886;9.388;2023-04-01T17:10:51;97241.63;;;12.01;100.00
34482;BME280;20720;48.886;9.388;2023-04-01T17:16:15;97230.03;;;12.30;100.00
34482;BME280;20720;48.886;9.388;2023-04-01T17:19:03;97238.50;;;12.04;100.00
34482;BME280;20720;48.886;9.388;2023-04-01T17:21:45;97236.97;;;12.20;100.00
34482;BME280;20720;48.886;9.388;2023-04-01T17:24:41;97234.03;;;12.33;100.00
34482;BME280;20720;48.886;9.388;2023-04-01T17:30:28;97237.06;;;12.42;100.00
34482;BME280;20720;48.886;9.388;2023-04-01T17:33:27;97241.13;;;12.77;100.00
34482;BME280;20720;48.886;9.388;2023-04-01T17:38:54;97248.06;;;12.67;100.00
34482;BME280;20720;48.886;9.388;2023-04-01T17:41:32;97249.16;;;12.54;100.00
34482;BME280;20720;48.886;9.388;2023-04-01T17:44:21;97264.44;;;11.96;100.00
34482;BME280;20720;48.886;9.388;2023-04-01T17:47:00;97265.09;;;12.03;100.00
34482;BME280;20720;48.886;9.388;2023-04-01T17:49:53;97271.25;;;12.37;100.00
34482;BME280;20720;48.886;9.388;2023-04-01T17:52:42;97265.41;;;12.06;100.00
34482;BME280;20720;48.886;9.388;2023-04-01T18:08:58;97299.34;;;11.91;100.00
34482;BME280;20720;48.886;9.388;2023-04-01T18:11:36;97294.59;;;11.65;100.00
34482;BME280;20720;48.886;9.388;2023-04-01T18:14:23;97301.59;;;11.99;100.00
34482;BME280;20720;48.886;9.388;2023-04-01T18:22:53;97311.94;;;11.66;100.00
34482;BME280;20720;48.886;9.388;2023-04-01T18:25:30;97301.94;;;12.03;100.00
34482;BME280;20720;48.886;9.388;2023-04-01T18:28:22;97316.16;;;11.90;100.00
34482;BME280;20720;48.886;9.388;2023-04-01T18:31:20;97315.25;;;12.24;100.00
34482;BME280;20720;48.886;9.388;2023-04-01T18:34:07;97314.22;;;12.54;100.00
34482;BME280;20720;48.886;9.388;2023-04-01T18:36:56;97323.13;;;11.96;100.00
34482;BME280;20720;48.886;9.388;2023-04-01T18:39:35;97327.50;;;11.56;100.00
34482;BME280;20720;48.886;9.388;2023-04-01T18:44:50;97337.06;;;12.08;100.00
34482;BME280;20720;48.886;9.388;2023-04-01T18:47:57;97340.63;;;11.91;100.00
34482;BME280;20720;48.886;9.388;2023-04-01T18:50:50;97348.09;;;11.94;100.00
34482;BME280;20720;48.886;9.388;2023-04-01T18:53:44;97338.84;;;12.19;100.00
34482;BME280;20720;48.886;9.388;2023-04-01T18:56:26;97339.16;;;12.35;100.00
34482;BME280;20720;48.886;9.388;2023-04-01T18:59:12;97353.53;;;12.04;100.00
34482;BME280;20720;48.886;9.388;2023-04-01T19:04:33;97357.47;;;12.01;100.00
34482;BME280;20720;48.886;9.388;2023-04-01T19:12:48;97365.56;;;12.51;100.00
34482;BME280;20720;48.886;9.388;2023-04-01T19:15:27;97368.19;;;12.11;100.00
34482;BME280;20720;48.886;9.388;2023-04-01T19:18:34;97358.53;;;11.66;100.00
34482;BME280;20720;48.886;9.388;2023-04-01T19:21:27;97356.84;;;11.18;100.00